Time;durP1;ratioP1;P1;durP2;ratioP2;P2;SDS_P1;SDS_P2;PMS_P1;PMS_P2;Temp;Humidity;BMP_temperature;BMP_pressure;BME280_temperature;BME280_humidity;BME280_pressure;Samples;Min_cycle;Max_cycle;Signal;HPM_P1;HPM_P2
2023/06/30 00:00:15;;;;;;;5.60;5.20;;;;;;;18.90;100.00;95849.09;7398614;19;20402;-72
2023/06/30 00:02:46;;;;;;;6.33;5.70;;;;;;;19.16;100.00;95879.97;7399788;19;20381;-72
2023/06/30 00:05:13;;;;;;;5.97;5.17;;;;;;;19.33;100.00;95874.88;7402637;19;20373;-72
2023/06/30 00:07:42;;;;;;;5.60;5.10;;;;;;;19.47;100.00;95883.56;7400234;19;20417;-73
2023/06/30 00:10:10;;;;;;;4.47;4.10;;;;;;;19.57;100.00;95889.28;7408563;19;20383;-72
2023/06/30 00:12:37;;;;;;;4.80;4.40;;;;;;;19.60;100.00;95867.03;7414224;19;20387;-72
2023/06/30 00:15:05;;;;;;;8.03;5.60;;;;;;;19.76;100.00;95875.31;7417942;19;20369;-72
2023/06/30 00:17:32;;;;;;;7.87;4.87;;;;;;;19.93;100.00;95879.03;7403056;19;20953;-73
2023/06/30 00:19:59;;;;;;;5.20;4.73;;;;;;;20.10;100.00;95906.84;7401214;19;20389;-72
2023/06/30 00:22:26;;;;;;;5.70;5.20;;;;;;;20.01;100.00;95894.66;7399891;19;20382;-72
2023/06/30 00:24:58;;;;;;;5.13;4.67;;;;;;;19.57;100.00;95871.28;7401463;19;20764;-73
2023/06/30 00:27:25;;;;;;;5.13;4.50;;;;;;;19.06;100.00;95856.66;7397297;19;20908;-72
2023/06/30 00:29:52;;;;;;;6.07;5.57;;;;;;;19.16;100.00;95877.28;7400874;19;20392;-72
2023/06/30 00:32:20;;;;;;;5.30;4.90;;;;;;;18.86;100.00;95850.28;7400161;19;20409;-72
2023/06/30 00:34:47;;;;;;;5.33;4.93;;;;;;;18.63;100.00;95820.53;7398652;19;20410;-72
2023/06/30 00:37:15;;;;;;;6.00;5.00;;;;;;;18.88;100.00;95838.03;7398038;19;20421;-72
2023/06/30 00:39:41;;;;;;;5.93;5.00;;;;;;;19.04;100.00;95856.31;7401113;19;20393;-72
2023/06/30 00:42:09;;;;;;;6.00;5.40;;;;;;;19.56;100.00;95874.34;7399445;19;20403;-72
2023/06/30 00:44:36;;;;;;;5.53;4.57;;;;;;;19.73;100.00;95878.81;7400865;19;20385;-72
2023/06/30 00:47:03;;;;;;;5.43;4.90;;;;;;;19.51;100.00;95859.44;7397222;19;20426;-72
2023/06/30 00:49:31;;;;;;;5.23;4.83;;;;;;;19.66;100.00;95885.00;7401241;19;20412;-72
2023/06/30 00:52:00;;;;;;;5.20;4.70;;;;;;;19.45;100.00;95858.31;7399138;19;20387;-72
2023/06/30 00:54:27;;;;;;;5.70;5.20;;;;;;;19.38;100.00;95874.47;7399168;19;20338;-72
2023/06/30 00:56:58;;;;;;;5.70;5.30;;;;;;;19.25;100.00;95862.69;7397312;19;20439;-72
2023/06/30 00:59:25;;;;;;;8.10;5.27;;;;;;;19.43;100.00;95847.97;7397280;19;20405;-72
2023/06/30 01:01:55;;;;;;;5.73;5.27;;;;;;;19.28;100.00;95861.91;7398957;19;20383;-72
2023/06/30 01:04:41;;;;;;;4.80;4.40;;;;;;;18.61;100.00;95856.50;7397540;19;20386;-72
2023/06/30 01:07:37;;;;;;;5.73;5.30;;;;;;;18.74;100.00;95866.81;7398585;19;20424;-72
2023/06/30 01:10:15;;;;;;;5.30;4.93;;;;;;;18.57;100.00;95812.91;7398900;19;20370;-72
2023/06/30 01:12:43;;;;;;;5.00;4.60;;;;;;;18.87;100.00;95852.56;7398533;19;20354;-72
2023/06/30 01:15:12;;;;;;;5.87;5.30;;;;;;;18.68;100.00;95858.41;7398953;19;20404;-72
2023/06/30 01:17:46;;;;;;;7.50;5.50;;;;;;;18.57;100.00;95830.91;7397665;19;20405;-72
2023/06/30 01:20:16;;;;;;;5.60;5.20;;;;;;;18.77;100.00;95840.00;7399715;19;20398;-72
2023/06/30 01:23:01;;;;;;;5.87;5.37;;;;;;;19.04;100.00;95864.34;7399294;19;20410;-72
2023/06/30 01:25:29;;;;;;;4.40;4.00;;;;;;;18.77;100.00;95818.56;7398111;19;20433;-72
2023/06/30 01:27:59;;;;;;;5.97;5.47;;;;;;;18.97;100.00;95832.25;7397528;19;20533;-72
2023/06/30 01:30:29;;;;;;;5.50;5.00;;;;;;;18.74;100.00;95819.34;7397452;19;20378;-72
2023/06/30 01:32:58;;;;;;;5.20;4.70;;;;;;;18.73;100.00;95812.47;7398806;19;20409;-72
2023/06/30 01:35:27;;;;;;;6.10;5.67;;;;;;;18.75;100.00;95818.19;7396809;19;20388;-72
2023/06/30 01:37:55;;;;;;;6.13;5.53;;;;;;;18.97;100.00;95821.53;7394981;19;20425;-72
2023/06/30 01:40:24;;;;;;;6.30;5.07;;;;;;;18.97;100.00;95834.91;7397175;19;20406;-72
2023/06/30 01:42:53;;;;;;;5.90;5.30;;;;;;;18.94;100.00;95818.84;7398648;19;20410;-72
2023/06/30 01:45:21;;;;;;;5.33;4.93;;;;;;;18.88;100.00;95827.31;7396863;19;20397;-72
2023/06/30 01:47:49;;;;;;;6.20;5.70;;;;;;;18.45;100.00;95797.28;7398454;19;20378;-72
2023/06/30 01:50:18;;;;;;;5.80;5.27;;;;;;;18.60;100.00;95814.06;7397102;19;20420;-72
2023/06/30 01:52:45;;;;;;;5.70;5.20;;;;;;;18.57;100.00;95809.47;7398996;19;20372;-72
2023/06/30 01:55:13;;;;;;;11.90;5.63;;;;;;;18.56;100.00;95803.38;7396624;19;20955;-73
2023/06/30 01:57:40;;;;;;;5.03;4.67;;;;;;;18.88;100.00;95821.19;7399045;19;20366;-73
2023/06/30 02:00:08;;;;;;;5.67;5.27;;;;;;;18.85;100.00;95797.88;7397248;19;20426;-73
2023/06/30 02:02:41;;;;;;;6.20;5.50;;;;;;;19.09;100.00;95820.28;7395831;19;20740;-73
2023/06/30 02:05:09;;;;;;;5.50;5.10;;;;;;;19.28;100.00;95819.00;7396942;19;20397;-73
2023/06/30 02:07:36;;;;;;;5.67;5.20;;;;;;;19.39;100.00;95819.69;7393745;19;20372;-73
2023/06/30 02:10:07;;;;;;;5.20;4.83;;;;;;;18.80;100.00;95808.97;7396865;19;20909;-73
2023/06/30 02:12:35;;;;;;;6.03;5.23;;;;;;;18.35;100.00;95770.56;7395672;19;20388;-73
2023/06/30 02:15:03;;;;;;;5.90;5.40;;;;;;;18.63;100.00;95829.34;7396852;19;20386;-73
2023/06/30 02:17:32;;;;;;;5.17;4.67;;;;;;;18.54;100.00;95802.97;7394219;19;20945;-73
2023/06/30 02:20:00;;;;;;;9.63;6.00;;;;;;;18.58;100.00;95803.72;7397257;19;20367;-73
2023/06/30 02:22:27;;;;;;;5.43;5.03;;;;;;;18.56;100.00;95822.09;7395847;19;20377;-72
2023/06/30 02:24:56;;;;;;;6.03;4.73;;;;;;;18.54;100.00;95826.31;7397019;19;20391;-72
2023/06/30 02:27:29;;;;;;;6.37;5.87;;;;;;;18.35;100.00;95816.06;7393981;19;20458;-72
2023/06/30 02:30:05;;;;;;;5.33;4.90;;;;;;;18.18;100.00;95796.28;7396989;19;20736;-72
2023/06/30 02:32:37;;;;;;;6.17;5.57;;;;;;;18.20;100.00;95800.06;7395903;19;20488;-72
2023/06/30 02:35:06;;;;;;;5.77;5.27;;;;;;;18.37;100.00;95813.78;7394463;19;20368;-72
2023/06/30 02:37:34;;;;;;;5.80;5.30;;;;;;;18.08;100.00;95805.84;7396152;19;20420;-72
2023/06/30 02:40:01;;;;;;;5.37;4.87;;;;;;;18.06;100.00;95799.38;7394667;19;20383;-72
2023/06/30 02:42:29;;;;;;;5.70;5.30;;;;;;;17.73;100.00;95769.25;7396255;19;20395;-72
2023/06/30 02:44:55;;;;;;;5.50;5.03;;;;;;;17.98;100.00;95786.00;7394561;19;20378;-72
2023/06/30 02:47:22;;;;;;;5.60;5.17;;;;;;;17.73;100.00;95771.94;7394084;19;20974;-72
2023/06/30 02:49:49;;;;;;;6.10;5.60;;;;;;;18.00;100.00;95788.28;7394295;19;20961;-72
2023/06/30 02:52:17;;;;;;;6.17;5.20;;;;;;;18.13;100.00;95807.34;7395888;19;20383;-72
2023/06/30 02:54:44;;;;;;;9.40;5.53;;;;;;;17.85;100.00;95798.25;7394059;19;20397;-72
2023/06/30 02:57:11;;;;;;;9.20;6.13;;;;;;;17.97;100.00;95783.72;7394023;19;20424;-72
2023/06/30 02:59:38;;;;;;;6.47;5.60;;;;;;;18.01;100.00;95793.25;7394500;19;20754;-72
2023/06/30 03:02:06;;;;;;;5.47;5.10;;;;;;;18.02;100.00;95805.47;7395660;19;20374;-72
2023/06/30 03:04:34;;;;;;;7.90;5.17;;;;;;;17.96;100.00;95795.56;7394108;19;20377;-72
2023/06/30 03:07:01;;;;;;;6.60;6.00;;;;;;;17.55;100.00;95771.94;7394291;19;20441;-72
2023/06/30 03:09:29;;;;;;;6.60;5.83;;;;;;;17.57;100.00;95801.72;7392451;19;20386;-72
2023/06/30 03:11:56;;;;;;;6.10;5.60;;;;;;;17.81;100.00;95800.19;7395731;19;20384;-72
2023/06/30 03:14:23;;;;;;;6.63;5.40;;;;;;;17.67;100.00;95781.47;7394107;19;20942;-72
2023/06/30 03:16:50;;;;;;;6.70;5.43;;;;;;;17.99;100.00;95811.59;7394430;19;20448;-72
2023/06/30 03:19:17;;;;;;;6.43;5.10;;;;;;;17.91;100.00;95785.28;7398760;19;20415;-72
2023/06/30 03:21:44;;;;;;;7.03;6.10;;;;;;;18.00;100.00;95790.94;7403948;19;20377;-72
2023/06/30 03:24:11;;;;;;;7.53;5.80;;;;;;;17.77;100.00;95796.78;7401846;19;20936;-72
2023/06/30 03:26:38;;;;;;;6.50;5.90;;;;;;;17.43;100.00;95783.03;7401691;19;20447;-72
2023/06/30 03:29:14;;;;;;;7.30;5.60;;;;;;;17.58;100.00;95787.22;7400019;19;20385;-71
2023/06/30 03:31:41;;;;;;;6.50;5.87;;;;;;;17.67;100.00;95782.22;7400806;19;20381;-71
2023/06/30 03:34:08;;;;;;;6.80;6.20;;;;;;;17.67;100.00;95782.22;7403855;19;20356;-71
2023/06/30 03:36:35;;;;;;;7.23;6.10;;;;;;;17.68;100.00;95807.84;7398974;19;20437;-71
2023/06/30 03:39:04;;;;;;;5.60;5.20;;;;;;;17.86;100.00;95810.47;7401575;19;20687;-71
2023/06/30 03:41:32;;;;;;;6.33;5.83;;;;;;;17.94;100.00;95803.22;7400025;19;20769;-71
2023/06/30 03:43:59;;;;;;;8.23;6.10;;;;;;;17.96;100.00;95796.31;7401728;19;20372;-71
2023/06/30 03:46:26;;;;;;;11.77;5.77;;;;;;;17.88;100.00;95778.00;7398691;19;20437;-71
2023/06/30 03:48:53;;;;;;;5.97;5.40;;;;;;;17.71;100.00;95766.19;7400251;19;20387;-71
2023/06/30 03:51:20;;;;;;;6.77;5.93;;;;;;;17.80;100.00;95787.97;7399796;19;20412;-71
2023/06/30 03:53:50;;;;;;;5.60;5.10;;;;;;;17.53;100.00;95776.91;7401712;19;20376;-71
2023/06/30 03:56:17;;;;;;;6.90;6.30;;;;;;;17.64;100.00;95804.41;7398500;19;20980;-71
2023/06/30 03:58:45;;;;;;;6.70;6.07;;;;;;;17.56;100.00;95800.19;7401060;19;20376;-71
2023/06/30 04:01:12;;;;;;;6.57;6.07;;;;;;;17.23;100.00;95784.56;7399958;19;20394;-71
2023/06/30 04:03:39;;;;;;;7.27;5.83;;;;;;;17.26;100.00;95805.94;7401697;19;20366;-71
2023/06/30 04:06:06;;;;;;;7.00;6.23;;;;;;;17.34;100.00;95791.44;7399216;19;20421;-71
2023/06/30 04:08:33;;;;;;;9.13;6.17;;;;;;;17.42;100.00;95789.53;7400205;19;20396;-71
2023/06/30 04:11:00;;;;;;;7.30;6.70;;;;;;;17.21;100.00;95800.22;7399639;19;20384;-71
2023/06/30 04:13:27;;;;;;;6.80;6.20;;;;;;;17.17;100.00;95767.41;7401064;19;20376;-71
2023/06/30 04:15:53;;;;;;;6.37;5.87;;;;;;;17.49;100.00;95799.44;7398561;19;20786;-71
2023/06/30 04:18:20;;;;;;;6.97;6.37;;;;;;;17.46;100.00;95784.94;7401236;19;20387;-71
2023/06/30 04:20:47;;;;;;;8.30;7.60;;;;;;;17.41;100.00;95754.00;7399262;19;20771;-72
2023/06/30 04:23:14;;;;;;;6.23;5.73;;;;;;;17.81;100.00;95805.53;7402322;19;20946;-72
2023/06/30 04:25:41;;;;;;;8.43;7.63;;;;;;;17.97;100.00;95802.44;7400123;19;20417;-71
2023/06/30 04:28:09;;;;;;;7.50;6.97;;;;;;;17.73;100.00;95780.72;7401999;19;20349;-71
2023/06/30 04:30:35;;;;;;;6.93;6.43;;;;;;;17.25;100.00;95744.88;7398766;19;20375;-72
2023/06/30 04:33:02;;;;;;;8.10;7.40;;;;;;;17.49;100.00;95772.69;7400705;19;20876;-72
2023/06/30 04:35:30;;;;;;;7.93;7.23;;;;;;;17.41;100.00;95762.03;7398863;19;20416;-71
2023/06/30 04:37:56;;;;;;;9.93;9.03;;;;;;;17.54;100.00;95767.75;7400733;19;20383;-71
2023/06/30 04:40:23;;;;;;;7.97;7.27;;;;;;;17.57;100.00;95777.66;7399055;19;20966;-72
2023/06/30 04:42:50;;;;;;;8.43;7.53;;;;;;;17.67;100.00;95779.56;7400867;19;20357;-72
2023/06/30 04:45:17;;;;;;;8.47;7.87;;;;;;;17.81;100.00;95786.81;7398570;19;20967;-71
2023/06/30 04:47:44;;;;;;;8.37;7.67;;;;;;;17.90;100.00;95776.47;7401887;19;20345;-72
2023/06/30 04:50:12;;;;;;;9.30;8.50;;;;;;;17.93;100.00;95781.06;7397110;19;20419;-72
2023/06/30 04:52:39;;;;;;;10.03;8.60;;;;;;;17.88;100.00;95773.41;7400766;19;20380;-72
2023/06/30 04:55:06;;;;;;;9.83;8.93;;;;;;;18.04;100.00;95766.88;7399354;19;20377;-72
2023/06/30 04:57:33;;;;;;;8.37;7.77;;;;;;;18.11;100.00;95756.91;7398092;19;20427;-72
2023/06/30 05:00:00;;;;;;;10.20;9.17;;;;;;;18.33;100.00;95776.31;7398421;19;20896;-72
2023/06/30 05:02:27;;;;;;;9.80;7.40;;;;;;;18.40;100.00;95780.84;7399887;19;20729;-72
2023/06/30 05:04:54;;;;;;;7.83;7.13;;;;;;;18.62;100.00;95787.63;7398524;19;20351;-72
2023/06/30 05:07:21;;;;;;;7.50;6.90;;;;;;;18.59;100.00;95775.03;7397977;19;20463;-72
2023/06/30 05:09:49;;;;;;;7.43;6.83;;;;;;;18.72;100.00;95780.72;7398302;19;20345;-72
2023/06/30 05:12:16;;;;;;;7.80;6.87;;;;;;;18.63;100.00;95775.78;7399685;19;20780;-72
2023/06/30 05:14:43;;;;;;;6.93;6.33;;;;;;;18.52;100.00;95764.34;7398445;19;20691;-71
2023/06/30 05:17:10;;;;;;;7.40;6.80;;;;;;;18.66;100.00;95788.41;7395127;19;20440;-72
2023/06/30 05:19:37;;;;;;;7.60;7.00;;;;;;;18.66;100.00;95766.97;7399758;19;20877;-71
2023/06/30 05:22:04;;;;;;;7.10;6.27;;;;;;;18.86;100.00;95773.38;7396586;19;20440;-71
2023/06/30 05:24:33;;;;;;;6.17;5.33;;;;;;;19.24;100.00;95784.19;7400600;19;20376;-71
2023/06/30 05:27:01;;;;;;;9.17;6.33;;;;;;;19.36;100.00;95797.09;7394698;19;20425;-72
2023/06/30 05:29:30;;;;;;;6.03;5.60;;;;;;;19.17;100.00;95779.63;7406670;19;20449;-72
2023/06/30 05:31:57;;;;;;;6.37;5.77;;;;;;;19.09;100.00;95782.75;7410873;19;20415;-73
2023/06/30 05:34:24;;;;;;;6.20;5.60;;;;;;;19.04;100.00;95788.53;7407925;19;20406;-72
2023/06/30 05:36:52;;;;;;;7.83;6.97;;;;;;;18.95;100.00;95782.84;7395416;19;20448;-71
2023/06/30 05:39:19;;;;;;;6.93;6.43;;;;;;;19.12;100.00;95785.44;7398586;19;20377;-71
2023/06/30 05:41:45;;;;;;;7.43;6.73;;;;;;;19.28;100.00;95776.13;7394556;19;20349;-71
2023/06/30 05:44:12;;;;;;;5.97;5.47;;;;;;;19.40;100.00;95771.03;7398315;19;20367;-71
2023/06/30 05:46:39;;;;;;;6.43;5.83;;;;;;;19.61;100.00;95801.50;7395697;19;20513;-72
2023/06/30 05:49:07;;;;;;;8.50;5.83;;;;;;;19.71;100.00;95801.41;7405909;19;20360;-70
2023/06/30 05:51:35;;;;;;;6.20;5.70;;;;;;;19.54;100.00;95798.88;7404308;19;20395;-71
2023/06/30 05:54:02;;;;;;;6.00;5.40;;;;;;;19.48;100.00;95783.19;7413310;19;20371;-71
2023/06/30 05:56:30;;;;;;;7.40;6.10;;;;;;;19.60;100.00;95795.38;7399369;19;20414;-71
2023/06/30 05:58:58;;;;;;;6.37;5.87;;;;;;;19.61;100.00;95799.59;7394734;19;20349;-71
2023/06/30 06:01:25;;;;;;;6.73;6.13;;;;;;;19.57;100.00;95796.19;7400944;19;20342;-71
2023/06/30 06:03:52;;;;;;;6.60;5.40;;;;;;;19.67;100.00;95813.34;7421877;19;20388;-71
2023/06/30 06:06:21;;;;;;;7.50;7.00;;;;;;;19.76;100.00;95819.78;7427717;19;20385;-71
2023/06/30 06:08:48;;;;;;;12.53;7.73;;;;;;;19.55;100.00;95777.03;7429881;19;20372;-71
2023/06/30 06:11:15;;;;;;;7.13;6.27;;;;;;;19.72;100.00;95810.97;7429294;19;20345;-71
2023/06/30 06:13:42;;;;;;;9.03;6.20;;;;;;;19.71;100.00;95822.09;7432407;19;20344;-71
2023/06/30 06:16:09;;;;;;;7.87;7.27;;;;;;;19.33;100.00;95786.41;7429607;19;20425;-71
2023/06/30 06:18:37;;;;;;;6.17;5.67;;;;;;;19.45;100.00;95815.41;7431685;19;20375;-71
2023/06/30 06:21:04;;;;;;;7.37;6.80;;;;;;;19.38;100.00;95802.84;7431143;19;20386;-71
2023/06/30 06:23:31;;;;;;;7.13;6.53;;;;;;;19.54;100.00;95809.59;7431659;19;20414;-71
2023/06/30 06:25:59;;;;;;;6.47;5.97;;;;;;;19.90;100.00;95810.03;7404472;19;20404;-71
2023/06/30 06:28:26;;;;;;;7.67;6.67;;;;;;;19.70;100.00;95810.63;7401061;19;20889;-71
2023/06/30 06:30:54;;;;;;;6.97;6.27;;;;;;;19.97;100.00;95810.72;7399295;19;20410;-71
2023/06/30 06:33:21;;;;;;;6.43;5.83;;;;;;;20.28;100.00;95810.75;7396565;19;20377;-71
2023/06/30 06:35:50;;;;;;;7.77;7.17;;;;;;;20.37;100.00;95800.31;7397344;19;20424;-71
2023/06/30 06:38:18;;;;;;;7.50;6.33;;;;;;;20.40;100.00;95802.19;7396118;19;20382;-71
2023/06/30 06:40:46;;;;;;;8.73;6.63;;;;;;;20.52;100.00;95800.91;7397208;19;20413;-71
2023/06/30 06:43:13;;;;;;;6.97;6.33;;;;;;;20.88;100.00;95803.88;7395528;19;20373;-71
2023/06/30 06:45:43;;;;;;;7.03;6.43;;;;;;;21.02;100.00;95802.94;7398513;19;20394;-71
2023/06/30 06:48:19;;;;;;;8.30;6.57;;;;;;;21.46;100.00;95820.69;7397496;19;20724;-71
2023/06/30 06:50:47;;;;;;;7.17;6.47;;;;;;;21.62;100.00;95790.44;7395312;19;20386;-71
2023/06/30 06:53:24;;;;;;;7.13;6.53;;;;;;;21.42;100.00;95803.88;7398896;19;20912;-72
2023/06/30 06:55:53;;;;;;;7.13;6.43;;;;;;;21.15;100.00;95785.81;7403598;19;20436;-72
2023/06/30 06:58:20;;;;;;;7.00;6.30;;;;;;;21.41;100.00;95788.91;7403285;19;20925;-72
2023/06/30 07:00:50;;;;;;;7.37;6.47;;;;;;;21.26;100.00;95811.81;7404458;19;20984;-72
2023/06/30 07:03:18;;;;;;;7.20;6.50;;;;;;;21.13;100.00;95773.94;7403499;19;20361;-72
2023/06/30 07:05:46;;;;;;;9.13;6.23;;;;;;;21.32;100.00;95812.84;7401306;19;20410;-72
2023/06/30 07:08:15;;;;;;;6.70;6.20;;;;;;;21.11;100.00;95806.63;7405358;19;20348;-73
2023/06/30 07:10:43;;;;;;;6.43;5.93;;;;;;;20.90;100.00;95812.31;7397519;19;20353;-72
2023/06/30 07:13:10;;;;;;;8.77;6.07;;;;;;;20.80;100.00;95792.47;7404385;19;20370;-72
2023/06/30 07:15:37;;;;;;;6.90;5.83;;;;;;;20.87;100.00;95794.31;7401167;19;20419;-72
2023/06/30 07:18:04;;;;;;;5.57;5.17;;;;;;;20.92;100.00;95797.28;7404250;19;20706;-72
2023/06/30 07:20:31;;;;;;;6.50;5.17;;;;;;;21.23;100.00;95789.94;7401644;19;20370;-72
2023/06/30 07:22:58;;;;;;;7.03;6.43;;;;;;;21.46;100.00;95786.50;7403452;19;20402;-72
2023/06/30 07:25:25;;;;;;;6.63;6.13;;;;;;;21.45;100.00;95784.97;7403774;19;20874;-72
2023/06/30 07:27:54;;;;;;;6.97;6.37;;;;;;;21.51;100.00;95801.41;7403906;19;20382;-72
2023/06/30 07:30:24;;;;;;;6.77;6.07;;;;;;;21.54;100.00;95781.75;7400873;19;20913;-73
2023/06/30 07:32:51;;;;;;;7.37;5.83;;;;;;;21.07;100.00;95765.56;7402328;19;20376;-72
2023/06/30 07:35:18;;;;;;;8.73;6.63;;;;;;;21.16;100.00;95792.72;7400706;19;20345;-72
2023/06/30 07:37:46;;;;;;;8.47;6.07;;;;;;;21.36;100.00;95786.66;7402393;19;20429;-73
2023/06/30 07:40:14;;;;;;;6.60;6.10;;;;;;;21.69;100.00;95807.25;7402190;19;20373;-72
2023/06/30 07:42:46;;;;;;;6.17;5.67;;;;;;;21.84;100.00;95808.50;7403622;19;20462;-73
2023/06/30 07:45:17;;;;;;;8.90;5.73;;;;;;;21.86;100.00;95799.25;7401325;19;20748;-72
2023/06/30 07:47:45;;;;;;;6.27;5.80;;;;;;;21.93;100.00;95807.22;7403302;19;20371;-73
2023/06/30 07:50:14;;;;;;;6.13;5.60;;;;;;;22.15;100.00;95813.72;7400098;19;20727;-73
2023/06/30 07:52:43;;;;;;;5.73;5.23;;;;;;;22.06;100.00;95819.69;7403014;19;20355;-72
2023/06/30 07:55:12;;;;;;;6.47;5.67;;;;;;;22.25;100.00;95820.09;7401097;19;20471;-72
2023/06/30 07:57:39;;;;;;;5.93;5.40;;;;;;;22.37;100.00;95793.28;7399608;19;20368;-72
2023/06/30 08:00:07;;;;;;;6.03;5.53;;;;;;;22.74;100.00;95812.19;7401477;19;20382;-72
2023/06/30 08:02:40;;;;;;;7.07;6.37;;;;;;;22.81;100.00;95817.41;7399220;19;20920;-72
2023/06/30 08:05:07;;;;;;;5.70;5.30;;;;;;;22.47;100.00;95794.25;7399430;19;20406;-72
2023/06/30 08:07:34;;;;;;;7.23;5.47;;;;;;;22.37;100.00;95798.69;7398598;19;20403;-72
2023/06/30 08:10:16;;;;;;;5.70;5.30;;;;;;;22.13;100.00;95813.41;7399859;19;20391;-72
2023/06/30 08:12:44;;;;;;;6.40;5.90;;;;;;;22.35;100.00;95802.97;7399966;19;20415;-72
2023/06/30 08:15:11;;;;;;;6.60;5.77;;;;;;;22.00;100.00;95782.84;7400575;19;20707;-72
2023/06/30 08:17:38;;;;;;;6.90;6.30;;;;;;;21.92;100.00;95784.16;7399406;19;20953;-72
2023/06/30 08:20:22;;;;;;;7.50;6.00;;;;;;;21.91;100.00;95785.34;7398466;19;20898;-72
2023/06/30 08:22:50;;;;;;;6.37;5.87;;;;;;;22.09;100.00;95753.47;7400239;19;20464;-72
2023/06/30 08:25:21;;;;;;;5.97;5.47;;;;;;;22.58;100.00;95797.50;7402333;19;20701;-72
2023/06/30 08:27:48;;;;;;;6.93;5.90;;;;;;;22.44;100.00;95784.31;7400936;19;20418;-71
2023/06/30 08:30:15;;;;;;;6.17;5.57;;;;;;;22.27;100.00;95764.63;7399893;19;20393;-71
2023/06/30 08:32:43;;;;;;;7.20;6.60;;;;;;;22.34;100.00;95769.88;7402028;19;20379;-71
2023/06/30 08:35:10;;;;;;;7.50;5.90;;;;;;;22.63;100.00;95790.84;7399164;19;20956;-72
2023/06/30 08:37:37;;;;;;;6.77;6.10;;;;;;;22.74;100.00;95807.56;7403482;19;20352;-73
2023/06/30 08:40:06;;;;;;;7.10;5.80;;;;;;;22.70;100.00;95779.88;7423644;19;20378;-72
2023/06/30 08:42:36;;;;;;;7.23;6.00;;;;;;;22.48;100.00;95776.16;7428097;19;20347;-72
2023/06/30 08:45:03;;;;;;;7.20;5.70;;;;;;;22.43;100.00;95794.31;7427322;19;20390;-72
2023/06/30 08:47:32;;;;;;;7.57;6.40;;;;;;;22.59;100.00;95796.31;7399265;19;20431;-72
2023/06/30 08:50:00;;;;;;;6.63;6.03;;;;;;;23.07;100.00;95805.69;7398232;19;20422;-72
2023/06/30 08:52:28;;;;;;;8.77;6.20;;;;;;;23.37;100.00;95793.81;7399754;19;20909;-72
2023/06/30 08:54:55;;;;;;;5.80;5.20;;;;;;;23.40;100.00;95803.00;7399955;19;20347;-72
2023/06/30 08:57:23;;;;;;;8.03;5.70;;;;;;;23.63;100.00;95792.00;7394494;19;20407;-72
2023/06/30 08:59:51;;;;;;;9.00;6.07;;;;;;;23.17;100.00;95758.06;7398302;19;20900;-72
2023/06/30 09:02:19;;;;;;;6.40;5.80;;;;;;;24.13;100.00;95798.81;7400467;19;20378;-71
2023/06/30 09:04:46;;;;;;;7.67;6.93;;;;;;;24.12;94.88;95802.72;7398672;19;20375;-72
2023/06/30 09:07:23;;;;;;;8.53;7.10;;;;;;;23.75;96.46;95768.97;7397445;19;20439;-72
2023/06/30 09:09:54;;;;;;;8.23;7.43;;;;;;;24.14;89.33;95801.09;7398118;19;20367;-72
2023/06/30 09:12:21;;;;;;;7.77;6.87;;;;;;;24.00;89.74;95796.06;7398747;19;20377;-72
2023/06/30 09:14:51;;;;;;;7.37;6.20;;;;;;;24.23;92.18;95795.06;7399298;19;20374;-72
2023/06/30 09:17:18;;;;;;;7.60;6.80;;;;;;;24.78;91.70;95798.53;7392290;19;20416;-72
2023/06/30 09:19:45;;;;;;;6.83;6.13;;;;;;;25.11;87.25;95799.13;7398837;19;20724;-72
2023/06/30 09:22:13;;;;;;;7.77;7.03;;;;;;;24.63;87.32;95795.50;7397085;19;20376;-73
2023/06/30 09:25:00;;;;;;;7.47;6.73;;;;;;;24.17;88.08;95800.25;7399098;19;20778;-72
2023/06/30 09:27:27;;;;;;;7.20;6.50;;;;;;;24.56;88.67;95790.28;7395747;19;20417;-72
2023/06/30 09:29:55;;;;;;;6.87;6.13;;;;;;;24.44;88.36;95802.63;7398858;19;20383;-71
2023/06/30 09:32:31;;;;;;;10.03;7.80;;;;;;;24.58;88.76;95801.47;7397948;19;20378;-71
2023/06/30 09:35:07;;;;;;;7.93;6.50;;;;;;;24.65;88.44;95795.06;7396516;19;20401;-71
2023/06/30 09:37:41;;;;;;;8.30;6.60;;;;;;;24.56;88.78;95779.47;7396098;19;21029;-73
2023/06/30 09:40:14;;;;;;;8.70;6.37;;;;;;;24.96;90.54;95795.28;7397061;19;20970;-73
2023/06/30 09:42:43;;;;;;;8.03;7.23;;;;;;;24.40;88.92;95787.66;7398794;19;20433;-72
2023/06/30 09:45:13;;;;;;;8.03;7.13;;;;;;;24.71;91.63;95796.81;7397704;19;20393;-73
2023/06/30 09:47:41;;;;;;;10.13;7.50;;;;;;;25.11;86.46;95774.78;7398648;19;20770;-72
2023/06/30 09:50:10;;;;;;;8.33;7.30;;;;;;;25.28;86.41;95786.22;7396632;19;20350;-72
2023/06/30 09:52:37;;;;;;;7.27;6.67;;;;;;;25.39;86.28;95773.09;7397882;19;20367;-72
2023/06/30 09:55:11;;;;;;;8.60;6.93;;;;;;;24.11;91.37;95787.69;7394432;19;20394;-72
2023/06/30 09:57:41;;;;;;;7.63;6.40;;;;;;;23.64;94.03;95782.75;7398150;19;20375;-72
2023/06/30 10:00:11;;;;;;;7.30;6.60;;;;;;;23.68;96.92;95769.91;7397305;19;20395;-72
2023/06/30 10:03:06;;;;;;;8.30;6.50;;;;;;;23.89;93.98;95784.78;7396202;19;20982;-72
2023/06/30 10:05:33;;;;;;;11.30;7.87;;;;;;;24.02;97.03;95757.81;7397977;19;20426;-72
2023/06/30 10:08:01;;;;;;;8.43;7.63;;;;;;;24.84;90.18;95753.56;7397913;19;20405;-73
2023/06/30 10:10:28;;;;;;;8.50;7.60;;;;;;;25.28;87.76;95772.69;7397698;19;20923;-72
2023/06/30 10:12:58;;;;;;;7.87;6.70;;;;;;;25.70;86.69;95770.53;7396633;19;20346;-72
2023/06/30 10:15:26;;;;;;;8.90;7.27;;;;;;;25.79;85.94;95759.03;7399156;19;20373;-72
2023/06/30 10:17:57;;;;;;;8.77;7.97;;;;;;;26.21;83.11;95775.72;7396648;19;20384;-73
2023/06/30 10:20:24;;;;;;;11.20;7.90;;;;;;;25.76;80.99;95757.94;7395301;19;20379;-73
2023/06/30 10:23:13;;;;;;;8.23;7.43;;;;;;;25.81;83.26;95757.38;7399048;19;20369;-73
2023/06/30 10:25:40;;;;;;;8.77;7.23;;;;;;;25.51;83.31;95745.25;7397363;19;20396;-73
2023/06/30 10:28:08;;;;;;;9.40;8.40;;;;;;;25.79;83.33;95734.66;7396475;19;20381;-73
2023/06/30 10:30:36;;;;;;;11.33;9.13;;;;;;;25.58;81.74;95744.97;7393614;19;20388;-73
2023/06/30 10:33:03;;;;;;;9.90;8.90;;;;;;;26.07;83.38;95754.56;7397627;19;20368;-72
2023/06/30 10:35:32;;;;;;;10.90;8.30;;;;;;;26.02;80.06;95761.28;7395652;19;20737;-73
2023/06/30 10:37:59;;;;;;;9.63;8.63;;;;;;;26.50;80.17;95762.66;7397439;19;20436;-74
2023/06/30 10:40:28;;;;;;;11.40;8.63;;;;;;;26.65;78.34;95737.72;7396067;19;20419;-74
2023/06/30 10:42:57;;;;;;;12.30;9.63;;;;;;;26.31;78.48;95752.91;7398589;19;20417;-74
2023/06/30 10:45:29;;;;;;;9.10;8.30;;;;;;;26.70;78.46;95761.53;7395840;19;20404;-73
2023/06/30 10:47:56;;;;;;;10.40;9.40;;;;;;;26.60;75.20;95739.06;7398852;19;20433;-73
2023/06/30 10:50:23;;;;;;;11.10;9.93;;;;;;;26.59;75.77;95734.84;7395112;19;20458;-72
2023/06/30 10:52:54;;;;;;;9.70;8.50;;;;;;;27.07;75.43;95730.66;7394069;19;20397;-73
2023/06/30 10:55:26;;;;;;;10.17;9.17;;;;;;;27.48;73.56;95747.59;7396637;19;20432;-73
2023/06/30 10:57:54;;;;;;;10.37;9.37;;;;;;;27.08;76.30;95743.00;7394103;19;20372;-72
2023/06/30 11:00:26;;;;;;;11.77;10.67;;;;;;;27.18;73.32;95729.47;7395935;19;20382;-74
2023/06/30 11:02:57;;;;;;;13.50;12.10;;;;;;;26.41;76.07;95727.38;7396470;19;20358;-74
2023/06/30 11:05:26;;;;;;;18.17;12.30;;;;;;;25.53;80.97;95710.34;7396459;19;20382;-74
2023/06/30 11:08:03;;;;;;;13.63;12.33;;;;;;;25.81;80.90;95716.00;7394307;19;20358;-74
2023/06/30 11:10:35;;;;;;;15.70;13.40;;;;;;;26.14;77.08;95713.63;7396230;19;20376;-74
2023/06/30 11:13:09;;;;;;;13.50;12.10;;;;;;;25.85;76.46;95703.84;7395491;19;20394;-73
2023/06/30 11:15:42;;;;;;;13.77;12.47;;;;;;;25.79;77.15;95716.44;7391680;19;20417;-73
2023/06/30 11:18:21;;;;;;;13.40;11.50;;;;;;;25.08;80.89;95707.97;7395966;19;20779;-73
2023/06/30 11:21:05;;;;;;;14.70;13.17;;;;;;;24.56;80.12;95711.88;7394153;19;20358;-72
2023/06/30 11:23:39;;;;;;;14.63;13.13;;;;;;;24.18;81.62;95684.84;7398419;19;20387;-74
2023/06/30 11:26:16;;;;;;;13.77;12.37;;;;;;;24.75;82.45;95697.41;7395574;19;20845;-72
2023/06/30 11:28:48;;;;;;;14.07;12.17;;;;;;;25.31;79.54;95693.31;7393808;19;20381;-72
2023/06/30 11:31:16;;;;;;;14.23;12.73;;;;;;;25.37;78.31;95710.50;7394248;19;20438;-72
2023/06/30 11:33:44;;;;;;;19.80;17.80;;;;;;;25.16;77.10;95716.63;7394629;19;20392;-74